TTW235 RJCC-RCTP
Flight info
| Callsign | TTW235 |
|---|---|
| Flight time | N/A |
| Altitude | 36000 |
| Route | DALBI Y120 TAPPI Y12 ARIKA Y14 MIHOU Y45 HKC Y50 JEDAI/N0452F380 Y50 IGMON A1 DRAKE DRAKE1A |
| Aircraft | A21N/M-SDE1E2E3FGHIJ1J3J4J7M3P2RWY/LB1D1 |
Departure
| Time | 2026-05-01 08:57 |
|---|---|
| Airport | New Chitose Airport (RJCC) |
Arrival
| Time | N/A |
|---|---|
| Airport | Taiwan Taoyuan International Airport (RCTP) |
| Time | Latitude | Longitude | Altitude | Speed | Heading |
|---|---|---|---|---|---|
| 2026-05-01 08:34 | 42.78616 | 141.67514 | 65 ft | 0 kts | 82° |
| 2026-05-01 08:35 | 42.78616 | 141.67513 | 65 ft | 0 kts | 82° |
| 2026-05-01 08:41 | 42.78616 | 141.67512 | 73 ft | 0 kts | 83° |
| 2026-05-01 08:46 | 42.78615 | 141.67503 | 73 ft | 0 kts | 83° |
| 2026-05-01 08:46 | 42.78612 | 141.67467 | 81 ft | 0 kts | 83° |
| 2026-05-01 08:46 | 42.78608 | 141.67438 | 63 ft | 0 kts | 66° |
| 2026-05-01 08:46 | 42.78593 | 141.67411 | 60 ft | 0 kts | 30° |
| 2026-05-01 08:47 | 42.78569 | 141.67402 | 70 ft | 0 kts | 354° |
| 2026-05-01 08:47 | 42.78567 | 141.67403 | 71 ft | 1 kts | 353° |
| 2026-05-01 08:49 | 42.78568 | 141.67403 | 70 ft | 1 kts | 353° |
| 2026-05-01 08:50 | 42.78584 | 141.67401 | 62 ft | 3 kts | 356° |
| 2026-05-01 08:50 | 42.78616 | 141.67397 | 67 ft | 6 kts | 354° |
| 2026-05-01 08:50 | 42.78665 | 141.67388 | 68 ft | 8 kts | 351° |
| 2026-05-01 08:50 | 42.78730 | 141.67377 | 66 ft | 11 kts | 353° |
| 2026-05-01 08:51 | 42.78812 | 141.67364 | 69 ft | 13 kts | 353° |
| 2026-05-01 08:51 | 42.78909 | 141.67347 | 71 ft | 15 kts | 352° |
| 2026-05-01 08:51 | 42.79020 | 141.67325 | 65 ft | 17 kts | 352° |
| 2026-05-01 08:51 | 42.79141 | 141.67302 | 70 ft | 18 kts | 352° |
| 2026-05-01 08:52 | 42.79188 | 141.67312 | 68 ft | 5 kts | 25° |
| 2026-05-01 08:52 | 42.79222 | 141.67341 | 70 ft | 7 kts | 56° |
| 2026-05-01 08:52 | 42.79233 | 141.67417 | 71 ft | 10 kts | 83° |
| 2026-05-01 08:52 | 42.79239 | 141.67518 | 71 ft | 12 kts | 83° |
| 2026-05-01 08:53 | 42.79253 | 141.67640 | 69 ft | 14 kts | 81° |
| 2026-05-01 08:53 | 42.79265 | 141.67782 | 73 ft | 16 kts | 85° |
| 2026-05-01 08:53 | 42.79267 | 141.67945 | 73 ft | 18 kts | 93° |
| 2026-05-01 08:53 | 42.79224 | 141.68108 | 72 ft | 18 kts | 108° |
| 2026-05-01 08:54 | 42.79184 | 141.68274 | 73 ft | 16 kts | 129° |
| 2026-05-01 08:54 | 42.79148 | 141.68337 | 71 ft | 9 kts | 128° |
| 2026-05-01 08:54 | 42.79100 | 141.68408 | 67 ft | 12 kts | 136° |
| 2026-05-01 08:54 | 42.79034 | 141.68490 | 71 ft | 14 kts | 148° |
| 2026-05-01 08:55 | 42.78947 | 141.68559 | 67 ft | 15 kts | 114° |
| 2026-05-01 08:55 | 42.78931 | 141.68698 | 69 ft | 15 kts | 137° |
| 2026-05-01 08:55 | 42.78853 | 141.68798 | 73 ft | 7 kts | 142° |
| 2026-05-01 08:55 | 42.78823 | 141.68815 | 73 ft | 6 kts | 169° |
| 2026-05-01 08:56 | 42.78813 | 141.68817 | 65 ft | 1 kts | 173° |
| 2026-05-01 08:56 | 42.78717 | 141.68833 | 67 ft | 44 kts | 173° |
| 2026-05-01 08:56 | 42.78406 | 141.68888 | 72 ft | 90 kts | 172° |
| 2026-05-01 08:56 | 42.77583 | 141.69037 | 67 ft | 146 kts | 171° |
| 2026-05-01 08:57 | 42.76600 | 141.69210 | 744 ft | 131 kts | 170° |
| 2026-05-01 08:57 | 42.75624 | 141.69378 | 1042 ft | 154 kts | 168° |
| 2026-05-01 08:57 | 42.74521 | 141.69615 | 1552 ft | 168 kts | 165° |
| 2026-05-01 08:57 | 42.72843 | 141.69956 | 2144 ft | 200 kts | 167° |
| 2026-05-01 08:58 | 42.71881 | 141.70142 | 2566 ft | 215 kts | 168° |
| 2026-05-01 08:58 | 42.70638 | 141.70381 | 3313 ft | 224 kts | 168° |
| 2026-05-01 08:59 | 42.70612 | 141.70386 | 3322 ft | 224 kts | 168° |
| 2026-05-01 08:59 | 42.69062 | 141.70683 | 4368 ft | 229 kts | 169° |
| 2026-05-01 09:00 | 42.67451 | 141.70995 | 5436 ft | 232 kts | 170° |
| 2026-05-01 09:00 | 42.65839 | 141.71307 | 6395 ft | 237 kts | 171° |
| 2026-05-01 09:00 | 42.64185 | 141.71627 | 7313 ft | 243 kts | 171° |
| 2026-05-01 09:00 | 42.62487 | 141.71954 | 8243 ft | 249 kts | 171° |
| 2026-05-01 09:01 | 42.60772 | 141.72257 | 9214 ft | 255 kts | 174° |
| 2026-05-01 09:01 | 42.58979 | 141.72083 | 10110 ft | 265 kts | 191° |
| 2026-05-01 09:01 | 42.57194 | 141.70979 | 10541 ft | 297 kts | 212° |
| 2026-05-01 09:01 | 42.55771 | 141.68809 | 10888 ft | 331 kts | 234° |
| 2026-05-01 09:02 | 42.54646 | 141.65956 | 11231 ft | 355 kts | 238° |
| 2026-05-01 09:02 | 42.53495 | 141.62882 | 11547 ft | 375 kts | 238° |
| 2026-05-01 09:02 | 42.52263 | 141.59682 | 11865 ft | 391 kts | 238° |
| 2026-05-01 09:02 | 42.50972 | 141.56402 | 12357 ft | 398 kts | 238° |
| 2026-05-01 09:03 | 42.49648 | 141.53079 | 13044 ft | 401 kts | 238° |
| 2026-05-01 09:03 | 42.48316 | 141.49754 | 13737 ft | 403 kts | 237° |
| 2026-05-01 09:03 | 42.46967 | 141.46410 | 14386 ft | 405 kts | 237° |
| 2026-05-01 09:03 | 42.45604 | 141.43049 | 15035 ft | 408 kts | 237° |
| 2026-05-01 09:04 | 42.44235 | 141.39674 | 15686 ft | 410 kts | 237° |
| 2026-05-01 09:04 | 42.42863 | 141.36286 | 16237 ft | 412 kts | 238° |
| 2026-05-01 09:04 | 42.41484 | 141.32885 | 16728 ft | 415 kts | 237° |
| 2026-05-01 09:04 | 42.40088 | 141.29447 | 17226 ft | 417 kts | 237° |
| 2026-05-01 09:05 | 42.38689 | 141.26004 | 17743 ft | 419 kts | 237° |
| 2026-05-01 09:05 | 42.37287 | 141.22538 | 18221 ft | 421 kts | 237° |
| 2026-05-01 09:05 | 42.35873 | 141.19053 | 18642 ft | 424 kts | 238° |
| 2026-05-01 09:05 | 42.34446 | 141.15544 | 19047 ft | 427 kts | 238° |
| 2026-05-01 09:06 | 42.33008 | 141.12018 | 19511 ft | 431 kts | 238° |
| 2026-05-01 09:06 | 42.31553 | 141.08460 | 19989 ft | 434 kts | 238° |
| 2026-05-01 09:06 | 42.30089 | 141.04885 | 20444 ft | 437 kts | 238° |
| 2026-05-01 09:06 | 42.28611 | 141.01279 | 20995 ft | 441 kts | 239° |
| 2026-05-01 09:07 | 42.27120 | 140.97640 | 21625 ft | 445 kts | 239° |
| 2026-05-01 09:07 | 42.25619 | 140.93985 | 22190 ft | 448 kts | 239° |
| 2026-05-01 09:07 | 42.24107 | 140.90307 | 22660 ft | 452 kts | 239° |
| 2026-05-01 09:07 | 42.22560 | 140.86550 | 23114 ft | 456 kts | 239° |
| 2026-05-01 09:08 | 42.21015 | 140.82798 | 23517 ft | 459 kts | 239° |
| 2026-05-01 09:08 | 42.19465 | 140.79037 | 23936 ft | 461 kts | 239° |
| 2026-05-01 09:08 | 42.17904 | 140.75257 | 24397 ft | 459 kts | 239° |
| 2026-05-01 09:08 | 42.16354 | 140.71509 | 24881 ft | 457 kts | 238° |
| 2026-05-01 09:09 | 42.14812 | 140.67786 | 25364 ft | 454 kts | 238° |
| 2026-05-01 09:09 | 42.13272 | 140.64071 | 25845 ft | 451 kts | 238° |
| 2026-05-01 09:09 | 42.11750 | 140.60403 | 26313 ft | 449 kts | 238° |
| 2026-05-01 09:09 | 42.10115 | 140.56844 | 26776 ft | 444 kts | 232° |
| 2026-05-01 09:10 | 42.08073 | 140.53756 | 27230 ft | 439 kts | 221° |
| 2026-05-01 09:10 | 42.05647 | 140.51303 | 27694 ft | 435 kts | 211° |
| 2026-05-01 09:10 | 42.02940 | 140.49553 | 28175 ft | 432 kts | 200° |
| 2026-05-01 09:10 | 42.00071 | 140.48387 | 28698 ft | 429 kts | 196° |
| 2026-05-01 09:11 | 41.97230 | 140.47357 | 29178 ft | 428 kts | 195° |
| 2026-05-01 09:11 | 41.94321 | 140.46304 | 29620 ft | 427 kts | 196° |
| 2026-05-01 09:11 | 41.91460 | 140.45252 | 30017 ft | 425 kts | 196° |
| 2026-05-01 09:11 | 41.88651 | 140.44210 | 30410 ft | 423 kts | 196° |
| 2026-05-01 09:12 | 41.85821 | 140.43157 | 30833 ft | 421 kts | 196° |
| 2026-05-01 09:12 | 41.82986 | 140.42100 | 31254 ft | 418 kts | 196° |
| 2026-05-01 09:12 | 41.80186 | 140.41058 | 31667 ft | 416 kts | 196° |
| 2026-05-01 09:12 | 41.77472 | 140.40048 | 32075 ft | 414 kts | 196° |
| 2026-05-01 09:13 | 41.74693 | 140.39015 | 32410 ft | 413 kts | 196° |
| 2026-05-01 09:13 | 41.71917 | 140.37984 | 32747 ft | 412 kts | 196° |
| 2026-05-01 09:13 | 41.69145 | 140.36955 | 33124 ft | 411 kts | 196° |
| 2026-05-01 09:13 | 41.66403 | 140.35941 | 33474 ft | 409 kts | 196° |
| 2026-05-01 09:14 | 41.63668 | 140.34930 | 33779 ft | 407 kts | 196° |
| 2026-05-01 09:14 | 41.60948 | 140.33922 | 34089 ft | 404 kts | 197° |
| 2026-05-01 09:14 | 41.58271 | 140.32933 | 34403 ft | 400 kts | 196° |
| 2026-05-01 09:14 | 41.55604 | 140.31946 | 34742 ft | 396 kts | 196° |
| 2026-05-01 09:15 | 41.52958 | 140.30971 | 35055 ft | 393 kts | 196° |
| 2026-05-01 09:15 | 41.50316 | 140.29998 | 35366 ft | 390 kts | 196° |
| 2026-05-01 09:15 | 41.47718 | 140.29041 | 35519 ft | 388 kts | 196° |
| 2026-05-01 09:15 | 41.45112 | 140.28084 | 35515 ft | 386 kts | 196° |
| 2026-05-01 09:16 | 41.39949 | 140.26188 | 35503 ft | 386 kts | 196° |
| 2026-05-01 09:17 | 41.32210 | 140.23352 | 35454 ft | 380 kts | 196° |
| 2026-05-01 09:17 | 41.24866 | 140.20664 | 35478 ft | 377 kts | 196° |
| 2026-05-01 09:18 | 41.17263 | 140.17888 | 35467 ft | 377 kts | 196° |
| 2026-05-01 09:19 | 41.09610 | 140.15146 | 35438 ft | 384 kts | 195° |
| 2026-05-01 09:20 | 41.02018 | 140.12545 | 35449 ft | 375 kts | 195° |
| 2026-05-01 09:21 | 40.91945 | 140.09059 | 35455 ft | 376 kts | 195° |
| 2026-05-01 09:21 | 40.84208 | 140.06392 | 35410 ft | 384 kts | 195° |
| 2026-05-01 09:22 | 40.74136 | 140.02934 | 35476 ft | 375 kts | 195° |
| 2026-05-01 09:23 | 40.66485 | 140.00314 | 35420 ft | 383 kts | 195° |
| 2026-05-01 09:24 | 40.58754 | 139.97675 | 35385 ft | 381 kts | 195° |
| 2026-05-01 09:25 | 40.48576 | 139.94208 | 35403 ft | 380 kts | 195° |
| 2026-05-01 09:26 | 40.41071 | 139.90637 | 35372 ft | 385 kts | 205° |
| 2026-05-01 09:26 | 40.33950 | 139.85764 | 35340 ft | 385 kts | 205° |
| 2026-05-01 09:27 | 40.26893 | 139.81013 | 35371 ft | 383 kts | 205° |
| 2026-05-01 09:28 | 40.22148 | 139.77830 | 35367 ft | 383 kts | 205° |